createdAt,value
2018-08-13T00:00:14.628Z,0
2018-08-13T00:01:29.572Z,0
2018-08-13T00:02:14.933Z,0
2018-08-13T00:03:29.616Z,0
2018-08-13T00:04:14.989Z,0
2018-08-13T00:05:15.002Z,0
2018-08-13T00:06:14.775Z,0
2018-08-13T00:07:29.763Z,0
2018-08-13T00:09:15.106Z,0
2018-08-13T00:10:29.527Z,0
2018-08-13T00:11:15.145Z,0
2018-08-13T00:12:15.169Z,0
2018-08-13T00:13:15.191Z,0
2018-08-13T00:14:15.216Z,0
2018-08-13T00:15:29.649Z,0
2018-08-13T00:16:15.262Z,0
2018-08-13T00:17:15.287Z,0
2018-08-13T00:18:15.312Z,0
2018-08-13T00:19:15.082Z,0
2018-08-13T00:20:14.859Z,0
2018-08-13T00:21:15.126Z,0
2018-08-13T00:22:15.408Z,0
2018-08-13T00:25:15.220Z,0
2018-08-13T00:26:15.505Z,0
2018-08-13T00:27:15.528Z,0
2018-08-13T00:28:30.216Z,0
2018-08-13T00:29:15.601Z,0
2018-08-13T00:30:15.358Z,0
2018-08-13T00:31:30.287Z,0
2018-08-13T00:32:15.436Z,0
2018-08-13T00:33:30.344Z,0
2018-08-13T00:34:15.691Z,0
2018-08-13T00:35:15.713Z,0
2018-08-13T00:36:15.740Z,0
2018-08-13T00:37:15.760Z,0
2018-08-13T00:38:15.793Z,0
2018-08-13T00:39:15.810Z,0
2018-08-13T00:40:15.578Z,0
2018-08-13T00:41:15.853Z,0
2018-08-13T00:42:15.879Z,0
2018-08-13T00:43:15.902Z,0
2018-08-13T00:44:15.676Z,0
2018-08-13T00:45:15.946Z,0
2018-08-13T00:46:30.669Z,0
2018-08-13T00:47:30.659Z,0
2018-08-13T00:48:16.019Z,0
2018-08-13T00:49:16.044Z,0
2018-08-13T00:50:15.811Z,0
2018-08-13T00:53:16.148Z,0
2018-08-13T00:54:16.161Z,0
2018-08-13T00:55:30.849Z,0
2018-08-13T00:56:16.208Z,0
2018-08-13T00:57:16.238Z,0
2018-08-13T00:58:16.255Z,0
2018-08-13T00:59:16.280Z,0
2018-08-13T01:00:16.304Z,0
2018-08-13T01:01:15.811Z,0
2018-08-13T01:02:16.090Z,0
2018-08-13T01:03:16.379Z,0
2018-08-13T01:04:16.136Z,0
2018-08-13T01:06:16.453Z,0
2018-08-13T01:07:16.469Z,0
2018-08-13T01:08:31.157Z,0
2018-08-13T01:09:16.515Z,0
2018-08-13T01:10:31.201Z,0
2018-08-13T01:11:16.303Z,0
2018-08-13T01:12:16.580Z,0
2018-08-13T01:13:16.355Z,0
2018-08-13T01:14:16.375Z,0
2018-08-13T01:15:16.662Z,0
2018-08-13T01:16:31.086Z,0
2018-08-13T01:17:16.443Z,0
2018-08-13T01:18:31.383Z,0
2018-08-13T01:20:16.772Z,0
2018-08-13T01:21:31.455Z,0
2018-08-13T01:22:16.823Z,0
2018-08-13T01:23:16.847Z,0
2018-08-13T01:24:16.865Z,0
2018-08-13T01:25:16.893Z,0
2018-08-13T01:26:31.573Z,0
2018-08-13T01:27:31.606Z,0
2018-08-13T01:28:16.967Z,0
2018-08-13T01:29:31.640Z,0
2018-08-13T01:30:17.006Z,0
2018-08-13T01:31:17.082Z,0
2018-08-13T01:32:17.049Z,0
2018-08-13T01:33:17.083Z,0
2018-08-13T01:34:31.769Z,0
2018-08-13T01:35:17.131Z,0
2018-08-13T01:36:17.143Z,0
2018-08-13T01:37:17.165Z,0
2018-08-13T01:38:17.206Z,0
2018-08-13T01:39:17.216Z,0
2018-08-13T01:41:17.013Z,0
2018-08-13T01:42:31.948Z,0
2018-08-13T01:43:17.307Z,0
2018-08-13T01:44:17.336Z,0
2018-08-13T01:45:32.023Z,0
2018-08-13T01:46:17.378Z,0
2018-08-13T01:47:32.059Z,0
2018-08-13T01:48:17.425Z,0
2018-08-13T01:49:17.450Z,0
2018-08-13T01:50:32.128Z,0
2018-08-13T01:51:17.493Z,0
2018-08-13T01:52:17.260Z,0
2018-08-13T01:53:17.283Z,0
2018-08-13T01:55:32.282Z,0
2018-08-13T01:56:17.662Z,0
2018-08-13T01:57:17.635Z,0
2018-08-13T01:58:17.444Z,0
2018-08-13T01:59:17.162Z,0
2018-08-13T02:00:17.703Z,0
2018-08-13T02:01:17.811Z,0
2018-08-13T02:02:17.498Z,0
2018-08-13T02:03:17.772Z,0
2018-08-13T02:04:17.282Z,0
2018-08-13T02:05:17.815Z,0
2018-08-13T02:06:32.500Z,0
2018-08-13T02:07:17.871Z,0
2018-08-13T02:08:17.885Z,0
2018-08-13T02:09:32.572Z,0
2018-08-13T02:10:17.686Z,0
2018-08-13T02:11:17.701Z,0
2018-08-13T02:12:17.983Z,0
2018-08-13T02:13:17.748Z,0
2018-08-13T02:14:18.028Z,0
2018-08-13T02:15:18.152Z,0
2018-08-13T02:16:18.077Z,0
2018-08-13T02:17:17.582Z,0
2018-08-13T02:18:18.116Z,0
2018-08-13T02:19:17.629Z,0
2018-08-13T02:20:17.910Z,0
2018-08-13T02:21:32.593Z,0
2018-08-13T02:22:32.875Z,0
2018-08-13T02:23:18.242Z,0
2018-08-13T02:24:18.002Z,0
2018-08-13T02:25:32.684Z,0
2018-08-13T02:26:18.048Z,0
2018-08-13T02:27:18.333Z,0
2018-08-13T02:28:18.399Z,0
2018-08-13T02:29:18.491Z,0
2018-08-13T02:30:18.139Z,0
2018-08-13T02:31:17.915Z,0
2018-08-13T02:32:18.185Z,0
2018-08-13T02:34:18.495Z,0
2018-08-13T02:35:18.510Z,0
2018-08-13T02:36:18.544Z,0
2018-08-13T02:37:18.571Z,0
2018-08-13T02:38:18.593Z,0
2018-08-13T02:39:19.140Z,0
2018-08-13T02:40:18.633Z,0
2018-08-13T02:41:18.654Z,0
2018-08-13T02:42:18.423Z,0
2018-08-13T02:43:33.361Z,0
2018-08-13T02:44:18.742Z,0
2018-08-13T02:45:18.751Z,0
2018-08-13T02:46:18.253Z,0
2018-08-13T02:47:18.788Z,0
2018-08-13T02:48:18.810Z,0
2018-08-13T02:49:18.590Z,0
2018-08-13T02:50:18.886Z,0
2018-08-13T02:51:18.885Z,0
2018-08-13T02:52:18.903Z,0
2018-08-13T02:53:33.596Z,0
2018-08-13T02:54:18.957Z,0
2018-08-13T02:55:33.639Z,0
2018-08-13T02:56:33.398Z,0
2018-08-13T02:57:18.248Z,0
2018-08-13T02:58:19.458Z,0
2018-08-13T03:00:19.185Z,0
2018-08-13T03:01:19.110Z,0
2018-08-13T03:02:33.799Z,0
2018-08-13T03:03:18.898Z,0
2018-08-13T03:04:18.924Z,4
2018-08-13T03:05:19.207Z,4
2018-08-13T03:06:19.225Z,4
2018-08-13T03:07:19.245Z,4
2018-08-13T03:08:19.015Z,4
2018-08-13T03:09:33.964Z,4
2018-08-13T03:10:19.315Z,4
2018-08-13T03:12:34.024Z,4
2018-08-13T03:14:19.149Z,8
2018-08-13T03:15:19.439Z,8
2018-08-13T03:16:33.859Z,12
2018-08-13T03:17:19.480Z,12
2018-08-13T03:18:33.899Z,16
2018-08-13T03:19:19.521Z,16
2018-08-13T03:20:19.296Z,20
2018-08-13T03:21:19.571Z,24
2018-08-13T03:22:19.332Z,28
2018-08-13T03:23:34.273Z,32
2018-08-13T03:24:34.295Z,36
2018-08-13T03:25:34.312Z,44
2018-08-13T03:26:19.679Z,48
2018-08-13T03:28:19.719Z,60
2018-08-13T03:29:19.231Z,72
2018-08-13T03:30:34.433Z,80
2018-08-13T03:31:19.795Z,84
2018-08-13T03:32:34.480Z,100
2018-08-13T03:33:19.615Z,108
2018-08-13T03:34:19.861Z,124
2018-08-13T03:35:19.882Z,136
2018-08-13T03:36:19.905Z,152
2018-08-13T03:37:20.027Z,168
2018-08-13T03:38:19.945Z,184
2018-08-13T03:39:19.976Z,204
2018-08-13T03:40:19.734Z,224
2018-08-13T03:41:34.674Z,248
2018-08-13T03:42:20.035Z,264
2018-08-13T03:43:19.800Z,288
2018-08-13T03:44:20.181Z,308
2018-08-13T03:45:20.111Z,336
2018-08-13T03:46:20.126Z,364
2018-08-13T03:47:19.896Z,392
2018-08-13T03:48:20.169Z,420
2018-08-13T03:49:19.941Z,448
2018-08-13T03:50:34.878Z,492
2018-08-13T03:51:20.247Z,512
2018-08-13T03:52:20.264Z,552
2018-08-13T03:53:20.031Z,584
2018-08-13T03:54:19.796Z,624
2018-08-13T03:55:20.077Z,660
2018-08-13T03:56:34.758Z,708
2018-08-13T03:57:35.039Z,752
2018-08-13T03:58:20.141Z,788
2018-08-13T03:59:20.161Z,844
2018-08-13T04:00:20.197Z,892
2018-08-13T04:01:20.466Z,940
2018-08-13T04:02:20.492Z,988
2018-08-13T04:03:20.250Z,1036
2018-08-13T04:04:20.534Z,1092
2018-08-13T04:05:20.566Z,1156
2018-08-13T04:06:34.990Z,1252
2018-08-13T04:07:20.606Z,1312
2018-08-13T04:08:20.623Z,1396
2018-08-13T04:09:20.388Z,1492
2018-08-13T04:10:20.159Z,1584
2018-08-13T04:11:20.693Z,1664
2018-08-13T04:12:20.772Z,1732
2018-08-13T04:13:20.481Z,1788
2018-08-13T04:14:20.761Z,1852
2018-08-13T04:15:20.780Z,1916
2018-08-13T04:16:20.812Z,1984
2018-08-13T04:19:20.872Z,2192
2018-08-13T04:21:20.918Z,2328
2018-08-13T04:22:20.947Z,2536
2018-08-13T04:23:20.711Z,2664
2018-08-13T04:24:20.986Z,2884
2018-08-13T04:25:20.752Z,2804
2018-08-13T04:26:21.028Z,2728
2018-08-13T04:27:21.153Z,2888
2018-08-13T04:28:35.480Z,2872
2018-08-13T04:29:21.096Z,2920
2018-08-13T04:30:35.526Z,4572
2018-08-13T04:31:20.628Z,4664
2018-08-13T04:33:20.929Z,3168
2018-08-13T04:34:21.210Z,3132
2018-08-13T04:35:21.235Z,3604
2018-08-13T04:36:21.265Z,4176
2018-08-13T04:37:21.031Z,3480
2018-08-13T04:38:36.036Z,3968
2018-08-13T04:39:21.067Z,4008
2018-08-13T04:42:21.399Z,3660
2018-08-13T04:43:21.207Z,3760
2018-08-13T04:44:36.101Z,4112
2018-08-13T04:45:21.207Z,4416
2018-08-13T04:46:21.488Z,5060
2018-08-13T04:47:21.509Z,4732
2018-08-13T04:48:21.546Z,4404
2018-08-13T04:49:21.300Z,4820
2018-08-13T04:51:21.600Z,5292
2018-08-13T04:52:21.946Z,5924
2018-08-13T04:53:36.306Z,5024
2018-08-13T04:54:36.069Z,20192
2018-08-13T04:55:21.695Z,33504
2018-08-13T04:56:21.716Z,39456
2018-08-13T04:57:36.394Z,45536
2018-08-13T04:58:21.763Z,51488
2018-08-13T04:59:21.782Z,53696
2018-08-13T05:00:36.479Z,57472
2018-08-13T05:01:21.897Z,57024
2018-08-13T05:02:21.600Z,60736
2018-08-13T05:03:21.878Z,63424
2018-08-13T05:04:21.908Z,62496
2018-08-13T05:05:36.592Z,63456
2018-08-13T05:06:21.696Z,64896
2018-08-13T05:07:22.282Z,64192
2018-08-13T05:08:36.667Z,66656
2018-08-13T05:09:22.038Z,66656
2018-08-13T05:10:36.727Z,65056
2018-08-13T05:11:22.105Z,67744
2018-08-13T05:12:22.112Z,67616
2018-08-13T05:13:21.887Z,66656
2018-08-13T05:14:21.657Z,67296
2018-08-13T05:15:21.938Z,65664
2018-08-13T05:17:36.917Z,65984
2018-08-13T05:18:22.282Z,67648
2018-08-13T05:19:22.103Z,68416
2018-08-13T05:20:22.082Z,70336
2018-08-13T05:21:22.661Z,70112
2018-08-13T05:22:21.883Z,73344
2018-08-13T05:23:22.447Z,68768
2018-08-13T05:24:22.201Z,70304
2018-08-13T05:25:22.529Z,77184
2018-08-13T05:26:36.926Z,70592
2018-08-13T05:27:37.223Z,60608
2018-08-13T05:28:22.579Z,48032
2018-08-13T05:29:22.611Z,57600
2018-08-13T05:30:22.658Z,70880
2018-08-13T05:31:37.083Z,77344
2018-08-13T05:32:22.707Z,74880
2018-08-13T05:33:22.483Z,73824
2018-08-13T05:34:22.774Z,73536
2018-08-13T05:35:22.545Z,74080
2018-08-13T05:37:37.627Z,76352
2018-08-13T05:38:23.040Z,79520
2018-08-13T05:39:37.337Z,77504
2018-08-13T05:40:22.964Z,74144
2018-08-13T05:41:22.996Z,74048
2018-08-13T05:42:23.029Z,69216
2018-08-13T05:43:22.801Z,69984
2018-08-13T05:44:23.088Z,61824
2018-08-13T05:45:22.873Z,52800
2018-08-13T05:46:22.644Z,59680
2018-08-13T05:47:23.201Z,62464
2018-08-13T05:49:23.257Z,60160
2018-08-13T05:50:23.292Z,58208
2018-08-13T05:51:23.329Z,62528
2018-08-13T05:52:38.024Z,72704
2018-08-13T05:53:23.131Z,76160
2018-08-13T05:54:23.165Z,80352
2018-08-13T05:55:23.456Z,80576
2018-08-13T05:56:23.492Z,81184
2018-08-13T05:57:23.535Z,76352
2018-08-13T05:58:23.570Z,78240
2018-08-13T05:59:23.600Z,75872
2018-08-13T06:00:23.371Z,73440
2018-08-13T06:01:23.659Z,77920
2018-08-13T06:02:23.698Z,83104
2018-08-13T06:03:38.136Z,79136
2018-08-13T06:04:23.504Z,78624
2018-08-13T06:05:23.654Z,77760
2018-08-13T06:07:38.531Z,75392
2018-08-13T06:08:23.656Z,75552
2018-08-13T06:09:23.933Z,73824
2018-08-13T06:10:23.971Z,74720
2018-08-13T06:11:24.587Z,72768
2018-08-13T06:12:23.807Z,71040
2018-08-13T06:13:24.081Z,70848
2018-08-13T06:14:24.117Z,70592
2018-08-13T06:15:23.894Z,65984
2018-08-13T06:16:24.185Z,65760
2018-08-13T06:17:23.708Z,66592
2018-08-13T06:18:24.260Z,69152
2018-08-13T06:19:38.956Z,69504
2018-08-13T06:20:38.990Z,70464
2018-08-13T06:22:25.081Z,66496
2018-08-13T06:23:24.434Z,67584
2018-08-13T06:24:24.753Z,72256
2018-08-13T06:25:24.516Z,77888
2018-08-13T06:26:39.197Z,81216
2018-08-13T06:27:24.580Z,79680
2018-08-13T06:28:24.762Z,81024
2018-08-13T06:29:24.392Z,78208
2018-08-13T06:30:39.090Z,78656
2018-08-13T06:32:24.493Z,81472
2018-08-13T06:33:24.528Z,83296
2018-08-13T06:34:24.561Z,86304
2018-08-13T06:35:39.525Z,87808
2018-08-13T06:36:24.948Z,88960
2018-08-13T06:37:24.488Z,86016
2018-08-13T06:38:24.970Z,87136
2018-08-13T06:39:25.011Z,85696
2018-08-13T06:40:24.787Z,76640
2018-08-13T06:42:24.596Z,69760
2018-08-13T06:43:39.853Z,67616
2018-08-13T06:44:25.229Z,66112
2018-08-13T06:45:25.220Z,70912
2018-08-13T06:46:25.008Z,78368
2018-08-13T06:47:25.289Z,83392
2018-08-13T06:48:25.326Z,86240
2018-08-13T06:49:25.136Z,89120
2018-08-13T06:50:25.407Z,91136
2018-08-13T06:51:40.105Z,91520
2018-08-13T06:52:25.217Z,88000
2018-08-13T06:53:25.252Z,86400
2018-08-13T06:54:25.559Z,85088
2018-08-13T06:55:25.329Z,85504
2018-08-13T06:56:25.623Z,87648
2018-08-13T06:58:25.179Z,82592
2018-08-13T06:59:25.746Z,79680
2018-08-13T07:01:25.552Z,82112
2018-08-13T07:02:25.899Z,44576
2018-08-13T07:03:25.896Z,67616
2018-08-13T07:04:40.591Z,63008
2018-08-13T07:05:25.704Z,64736
2018-08-13T07:06:40.423Z,67296
2018-08-13T07:07:25.777Z,67968
2018-08-13T07:08:25.875Z,67552
2018-08-13T07:09:25.847Z,73152
2018-08-13T07:10:26.142Z,69824
2018-08-13T07:11:40.844Z,63232
2018-08-13T07:12:26.225Z,62688
2018-08-13T07:13:26.254Z,60896
2018-08-13T07:14:26.289Z,74432
2018-08-13T07:15:41.047Z,79040
2018-08-13T07:16:41.040Z,78816
2018-08-13T07:17:40.811Z,79968
2018-08-13T07:19:26.219Z,62880
2018-08-13T07:20:26.253Z,65184
2018-08-13T07:21:26.602Z,67552
2018-08-13T07:22:27.072Z,70048
2018-08-13T07:23:26.627Z,73856
2018-08-13T07:24:26.659Z,78176
2018-08-13T07:26:26.732Z,81984
2018-08-13T07:27:26.772Z,75584
2018-08-13T07:28:41.475Z,68512
2018-08-13T07:29:26.329Z,67776
2018-08-13T07:30:26.884Z,57344
2018-08-13T07:31:26.408Z,61600
2018-08-13T07:32:41.618Z,67776
2018-08-13T07:34:27.033Z,67456
2018-08-13T07:35:27.068Z,69504
2018-08-13T07:36:27.100Z,68000
2018-08-13T07:37:26.885Z,71104
2018-08-13T07:38:41.846Z,69696
2018-08-13T07:39:27.267Z,67936
2018-08-13T07:40:41.918Z,70368
2018-08-13T07:41:27.294Z,73472
2018-08-13T07:43:27.108Z,71072
2018-08-13T07:44:27.412Z,72576
2018-08-13T07:45:27.491Z,74080
2018-08-13T07:46:27.362Z,74688
2018-08-13T07:47:27.517Z,70688
2018-08-13T07:48:27.558Z,68160
2018-08-13T07:49:27.340Z,71616
2018-08-13T07:50:27.637Z,71232
2018-08-13T07:51:27.669Z,69248
2018-08-13T07:52:27.756Z,65440
2018-08-13T07:53:27.742Z,66176
2018-08-13T07:54:42.466Z,70560
2018-08-13T07:55:27.819Z,70624
2018-08-13T07:56:27.593Z,70048
2018-08-13T07:58:27.414Z,71616
2018-08-13T07:59:42.636Z,70400
2018-08-13T08:00:27.497Z,70176
2018-08-13T08:01:27.783Z,68448
2018-08-13T08:02:28.084Z,66400
2018-08-13T08:03:28.117Z,65856
2018-08-13T08:04:42.870Z,64416
2018-08-13T08:05:28.198Z,64032
2018-08-13T08:06:28.234Z,65504
2018-08-13T08:07:28.264Z,66208
2018-08-13T08:08:42.979Z,65728
2018-08-13T08:09:28.361Z,63936
2018-08-13T08:10:43.050Z,65760
2018-08-13T08:11:28.423Z,65504
2018-08-13T08:12:28.201Z,62592
2018-08-13T08:13:27.987Z,62368
2018-08-13T08:14:28.033Z,63712
2018-08-13T08:15:28.315Z,63552
2018-08-13T08:16:28.358Z,63776
2018-08-13T08:17:27.878Z,63136
2018-08-13T08:18:28.691Z,62464
2018-08-13T08:19:43.389Z,64800
2018-08-13T08:20:28.761Z,64480
2018-08-13T08:21:43.714Z,60672
2018-08-13T08:22:28.839Z,59840
2018-08-13T08:23:28.888Z,63968
2018-08-13T08:24:28.664Z,62624
2018-08-13T08:25:28.700Z,57216
2018-08-13T08:26:43.659Z,61504
2018-08-13T08:27:28.781Z,61664
2018-08-13T08:28:29.064Z,57888
2018-08-13T08:29:29.169Z,58176
2018-08-13T08:30:28.888Z,60544
2018-08-13T08:31:29.192Z,58528
2018-08-13T08:32:29.219Z,58208
2018-08-13T08:33:29.261Z,57280
2018-08-13T08:34:29.036Z,55072
2018-08-13T08:35:29.339Z,55360
2018-08-13T08:36:29.375Z,55136
2018-08-13T08:37:29.408Z,53824
2018-08-13T08:38:29.447Z,53312
2018-08-13T08:39:29.229Z,53248
2018-08-13T08:40:29.646Z,51392
2018-08-13T08:41:44.237Z,52736
2018-08-13T08:42:29.602Z,51872
2018-08-13T08:43:29.642Z,48320
2018-08-13T08:44:29.684Z,48032
2018-08-13T08:45:29.717Z,49344
2018-08-13T08:46:29.493Z,50720
2018-08-13T08:47:29.531Z,48128
2018-08-13T08:48:29.830Z,48704
2018-08-13T08:49:44.529Z,47072
2018-08-13T08:51:29.937Z,38048
2018-08-13T08:52:30.011Z,38016
2018-08-13T08:53:30.148Z,30176
2018-08-13T08:54:30.081Z,14740
2018-08-13T08:55:30.099Z,13956
2018-08-13T08:56:30.129Z,15376
2018-08-13T08:57:30.165Z,12996
2018-08-13T08:58:30.204Z,18304
2018-08-13T08:59:44.904Z,18656
2018-08-13T09:00:44.992Z,17440
2018-08-13T09:01:30.056Z,16888
2018-08-13T09:02:30.351Z,13568
2018-08-13T09:03:30.389Z,12320
2018-08-13T09:04:30.430Z,12808
2018-08-13T09:05:30.461Z,13820
2018-08-13T09:06:45.165Z,13108
2018-08-13T09:07:30.533Z,12804
2018-08-13T09:08:30.565Z,14304
2018-08-13T09:09:30.092Z,18016
2018-08-13T09:10:30.641Z,15828
2018-08-13T09:11:30.418Z,17600
2018-08-13T09:12:30.760Z,22496
2018-08-13T09:14:00.078Z,23648
2018-08-13T09:16:45.260Z,15408
2018-08-13T09:17:30.892Z,18688
2018-08-13T09:19:30.707Z,22080
2018-08-13T09:20:30.996Z,22144
2018-08-13T09:21:31.031Z,21760
2018-08-13T09:22:45.730Z,21120
2018-08-13T09:23:31.114Z,20640
2018-08-13T09:24:31.144Z,20320
2018-08-13T09:25:31.287Z,20000
2018-08-13T09:26:31.210Z,19392
2018-08-13T09:27:31.250Z,18880
2018-08-13T09:28:31.284Z,18816
2018-08-13T09:29:45.465Z,18624
2018-08-13T09:30:31.096Z,18400
2018-08-13T09:31:30.872Z,18080
2018-08-13T09:32:31.175Z,17856
2018-08-13T09:33:31.468Z,17664
2018-08-13T09:34:45.643Z,17188
2018-08-13T09:35:31.532Z,16992
2018-08-13T09:37:31.605Z,16680
2018-08-13T09:38:31.650Z,16484
2018-08-13T09:39:31.673Z,16324
2018-08-13T09:40:31.708Z,16248
2018-08-13T09:41:31.491Z,16120
2018-08-13T09:42:31.782Z,16036
2018-08-13T09:43:31.820Z,15888
2018-08-13T09:44:31.858Z,15796
2018-08-13T09:45:46.554Z,15632
2018-08-13T09:46:31.921Z,15524
2018-08-13T09:47:31.965Z,15444
2018-08-13T09:48:31.486Z,15300
2018-08-13T09:49:31.793Z,15292
2018-08-13T09:50:32.072Z,15220
2018-08-13T09:51:32.108Z,15196
2018-08-13T09:52:32.140Z,15080
2018-08-13T09:54:32.220Z,14748
2018-08-13T09:55:46.654Z,13876
2018-08-13T09:56:32.027Z,14720
2018-08-13T09:57:32.315Z,14592
2018-08-13T09:58:32.350Z,14720
2018-08-13T09:59:32.144Z,14800
2018-08-13T10:00:32.541Z,14820
2018-08-13T10:01:47.126Z,14800
2018-08-13T10:02:47.162Z,14784
2018-08-13T10:03:32.538Z,14692
2018-08-13T10:04:32.586Z,14624
2018-08-13T10:05:32.344Z,14576
2018-08-13T10:06:32.642Z,14616
2018-08-13T10:07:32.418Z,14496
2018-08-13T10:08:32.454Z,14176
2018-08-13T10:09:33.103Z,14160
2018-08-13T10:10:32.783Z,12032
2018-08-13T10:11:32.818Z,12968
2018-08-13T10:12:32.852Z,13868
2018-08-13T10:13:32.638Z,14440
2018-08-13T10:14:32.665Z,14396
2018-08-13T10:16:47.517Z,14824
2018-08-13T10:17:32.576Z,14956
2018-08-13T10:18:33.069Z,13880
2018-08-13T10:19:32.585Z,12416
2018-08-13T10:20:33.140Z,14144
2018-08-13T10:21:32.921Z,15004
2018-08-13T10:22:33.208Z,15184
2018-08-13T10:23:33.284Z,15424
2018-08-13T10:24:32.757Z,15340
2018-08-13T10:25:33.311Z,14932
2018-08-13T10:26:33.095Z,15132
2018-08-13T10:27:48.046Z,14956
2018-08-13T10:28:33.157Z,14928
2018-08-13T10:30:33.487Z,14464
2018-08-13T10:31:48.188Z,14560
2018-08-13T10:32:33.567Z,14492
2018-08-13T10:33:48.255Z,14360
2018-08-13T10:34:33.368Z,14264
2018-08-13T10:35:33.152Z,14144
2018-08-13T10:36:33.702Z,13996
2018-08-13T10:37:34.097Z,13868
2018-08-13T10:38:33.771Z,13760
2018-08-13T10:39:33.545Z,13560
2018-08-13T10:40:33.580Z,13584
2018-08-13T10:41:33.873Z,13236
2018-08-13T10:42:33.913Z,10932
2018-08-13T10:43:34.198Z,13288
2018-08-13T10:44:48.141Z,13276
2018-08-13T10:45:33.754Z,13228
2018-08-13T10:46:34.044Z,13196
2018-08-13T10:47:33.826Z,13128
2018-08-13T10:49:03.444Z,13028
2018-08-13T10:49:34.320Z,13012
2018-08-13T10:50:34.193Z,12944
2018-08-13T10:51:34.215Z,12932
2018-08-13T10:53:34.291Z,12908
2018-08-13T10:54:34.065Z,12768
2018-08-13T10:56:49.058Z,12772
2018-08-13T10:57:33.652Z,12260
2018-08-13T10:58:34.460Z,12120
2018-08-13T10:59:34.235Z,11992
2018-08-13T11:00:34.263Z,10880
2018-08-13T11:01:34.297Z,9720
2018-08-13T11:02:34.590Z,8820
2018-08-13T11:03:49.297Z,10012
2018-08-13T11:04:49.066Z,10332
2018-08-13T11:05:34.442Z,11920
2018-08-13T11:06:34.729Z,12732
2018-08-13T11:07:34.774Z,12588
2018-08-13T11:08:34.531Z,12508
2018-08-13T11:09:34.828Z,12528
2018-08-13T11:10:34.545Z,10972
2018-08-13T11:11:34.898Z,9208
2018-08-13T11:12:34.928Z,9792
2018-08-13T11:13:49.501Z,9024
2018-08-13T11:14:49.648Z,10844
2018-08-13T11:15:34.769Z,10840
2018-08-13T11:16:35.061Z,10804
2018-08-13T11:17:34.833Z,10700
2018-08-13T11:19:35.162Z,10604
2018-08-13T11:20:49.849Z,10400
2018-08-13T11:21:49.777Z,10152
2018-08-13T11:22:34.998Z,9944
2018-08-13T11:23:49.949Z,9664
2018-08-13T11:24:35.326Z,9472
2018-08-13T11:25:35.554Z,9252
2018-08-13T11:26:35.382Z,9044
2018-08-13T11:28:35.558Z,8660
2018-08-13T11:29:35.481Z,8452
2018-08-13T11:30:35.524Z,8252
2018-08-13T11:31:35.550Z,7972
2018-08-13T11:32:35.322Z,7896
2018-08-13T11:33:35.619Z,7748
2018-08-13T11:34:35.390Z,7612
2018-08-13T11:35:35.423Z,7480
2018-08-13T11:36:50.379Z,7300
2018-08-13T11:37:35.487Z,7176
2018-08-13T11:39:50.471Z,6860
2018-08-13T11:40:36.024Z,6756
2018-08-13T11:41:35.618Z,6668
2018-08-13T11:42:35.909Z,6588
2018-08-13T11:43:35.950Z,6520
2018-08-13T11:44:35.975Z,6464
2018-08-13T11:45:35.761Z,6408
2018-08-13T11:46:35.913Z,6328
2018-08-13T11:47:35.552Z,6312
2018-08-13T11:48:35.634Z,6208
2018-08-13T11:49:36.146Z,6204
2018-08-13T11:50:50.831Z,6224
2018-08-13T11:52:05.526Z,6208
2018-08-13T11:52:36.479Z,6200
2018-08-13T11:53:36.265Z,6184
2018-08-13T11:54:36.303Z,6184
2018-08-13T11:55:36.326Z,6196
2018-08-13T11:56:36.591Z,6200
2018-08-13T11:58:36.428Z,6228
2018-08-13T11:59:50.862Z,6248
2018-08-13T12:00:36.494Z,6288
2018-08-13T12:01:36.273Z,5708
2018-08-13T12:02:36.557Z,4888
2018-08-13T12:03:36.596Z,4780
2018-08-13T12:04:36.613Z,4672
2018-08-13T12:05:36.389Z,4796
2018-08-13T12:06:36.682Z,5104
2018-08-13T12:07:51.378Z,4984
2018-08-13T12:08:51.570Z,5656
2018-08-13T12:09:51.461Z,7328
2018-08-13T12:10:36.808Z,7320
2018-08-13T12:11:36.843Z,8588
2018-08-13T12:12:51.541Z,8656
2018-08-13T12:13:36.910Z,8600
2018-08-13T12:14:36.673Z,8392
2018-08-13T12:15:36.721Z,8200
2018-08-13T12:16:36.999Z,8144
2018-08-13T12:17:51.703Z,8044
2018-08-13T12:18:51.734Z,7928
2018-08-13T12:19:37.442Z,7592
2018-08-13T12:20:37.169Z,7888
2018-08-13T12:21:37.162Z,8072
2018-08-13T12:22:37.192Z,8304
2018-08-13T12:23:51.885Z,7956
2018-08-13T12:24:37.259Z,7036
2018-08-13T12:25:37.288Z,6476
2018-08-13T12:26:51.869Z,6436
2018-08-13T12:27:37.190Z,6712
2018-08-13T12:28:37.126Z,6692
2018-08-13T12:29:37.163Z,7152
2018-08-13T12:30:37.449Z,7120
2018-08-13T12:31:37.219Z,7280
2018-08-13T12:32:36.998Z,7352
2018-08-13T12:33:37.303Z,7560
2018-08-13T12:34:37.320Z,7780
2018-08-13T12:35:37.351Z,8340
2018-08-13T12:36:37.638Z,9084
2018-08-13T12:37:37.420Z,8340
2018-08-13T12:38:37.185Z,8792
2018-08-13T12:39:52.397Z,8536
2018-08-13T12:40:37.765Z,8524
2018-08-13T12:41:52.461Z,8724
2018-08-13T12:42:37.572Z,8876
2018-08-13T12:43:37.345Z,9136
2018-08-13T12:44:37.635Z,8900
2018-08-13T12:46:37.953Z,8992
2018-08-13T12:47:37.735Z,8552
2018-08-13T12:48:37.769Z,8264
2018-08-13T12:49:52.721Z,8068
2018-08-13T12:50:37.825Z,7984
2018-08-13T12:51:52.791Z,7840
2018-08-13T12:52:37.898Z,7800
2018-08-13T12:53:38.177Z,7756
2018-08-13T12:54:38.209Z,7756
2018-08-13T12:55:52.904Z,7868
2018-08-13T12:56:38.014Z,7992
2018-08-13T12:57:37.795Z,8272
2018-08-13T12:58:53.000Z,8788
2018-08-13T12:59:38.378Z,9168
2018-08-13T13:00:38.146Z,9276
2018-08-13T13:01:38.175Z,9756
2018-08-13T13:02:38.211Z,9708
2018-08-13T13:03:38.243Z,10092
2018-08-13T13:04:38.531Z,11272
2018-08-13T13:05:52.965Z,9876
2018-08-13T13:06:38.595Z,9912
2018-08-13T13:07:38.364Z,10592
2018-08-13T13:08:38.139Z,11824
2018-08-13T13:09:38.691Z,11392
2018-08-13T13:10:38.727Z,11728
2018-08-13T13:11:53.416Z,10392
2018-08-13T13:12:38.523Z,10836
2018-08-13T13:13:53.487Z,10496
2018-08-13T13:15:38.939Z,10980
2018-08-13T13:16:38.971Z,10004
2018-08-13T13:17:38.945Z,9924
2018-08-13T13:18:38.979Z,9764
2018-08-13T13:19:53.672Z,9840
2018-08-13T13:20:38.655Z,9908
2018-08-13T13:21:38.811Z,10056
2018-08-13T13:22:38.846Z,10180
2018-08-13T13:23:39.137Z,10152
2018-08-13T13:24:38.912Z,9964
2018-08-13T13:25:39.205Z,9760
2018-08-13T13:26:53.376Z,9544
2018-08-13T13:27:53.672Z,9460
2018-08-13T13:28:53.958Z,9412
2018-08-13T13:29:39.071Z,9420
2018-08-13T13:30:39.357Z,9492
2018-08-13T13:31:39.403Z,9584
2018-08-13T13:33:39.197Z,9584
2018-08-13T13:34:39.773Z,9540
2018-08-13T13:35:39.523Z,9408
2018-08-13T13:36:39.297Z,9176
2018-08-13T13:37:39.590Z,8968
2018-08-13T13:39:39.644Z,8576
2018-08-13T13:40:39.871Z,8448
2018-08-13T13:42:39.587Z,8728
2018-08-13T13:43:39.513Z,8828
2018-08-13T13:44:39.599Z,8832
2018-08-13T13:45:39.838Z,8696
2018-08-13T13:46:39.884Z,8512
2018-08-13T13:47:39.905Z,8372
2018-08-13T13:48:39.933Z,8176
2018-08-13T13:49:39.969Z,7796
2018-08-13T13:50:54.661Z,7240
2018-08-13T13:51:40.390Z,6960
2018-08-13T13:52:39.805Z,6724
2018-08-13T13:53:39.579Z,6648
2018-08-13T13:54:40.128Z,6704
2018-08-13T13:55:39.999Z,6856
2018-08-13T13:56:54.597Z,6952
2018-08-13T13:57:40.217Z,6988
2018-08-13T13:58:54.912Z,7040
2018-08-13T14:00:40.056Z,7200
2018-08-13T14:01:55.013Z,7300
2018-08-13T14:02:40.219Z,7280
2018-08-13T14:03:39.891Z,7232
2018-08-13T14:04:40.447Z,7140
2018-08-13T14:05:55.133Z,6976
2018-08-13T14:06:40.499Z,6880
2018-08-13T14:07:40.530Z,6736
2018-08-13T14:08:40.313Z,6724
2018-08-13T14:09:55.259Z,6724
2018-08-13T14:10:40.631Z,6716
2018-08-13T14:11:40.401Z,6672
2018-08-13T14:12:55.356Z,6684
2018-08-13T14:13:40.722Z,6664
2018-08-13T14:14:55.412Z,6444
2018-08-13T14:15:40.525Z,6284
2018-08-13T14:16:40.881Z,5988
2018-08-13T14:17:41.292Z,5772
2018-08-13T14:18:40.880Z,5760
2018-08-13T14:19:40.652Z,5888
2018-08-13T14:20:40.949Z,6044
2018-08-13T14:21:40.723Z,6184